Strona główna
METAR-TAF:

METAR-TAF

Lotnisko :

Port lotniczy Gran Canaria

Gran Canaria, Hiszpania

Szerokość geograficzna: 27-56N, Długość geograficzna: 015-23W, wysokość: 23 m

Aktualna obserwacja pogody

Raport powstał 22 minut temu, godzina 19:30 UTC
Wiatr 17 kt od północno-północny wschód
Temperatura 22°C
Wilgotność 73%
Ciśnienie 1019 hPa
Widzialność 10 km lub więcej
Mało chmury na wysokości 2500 ft

METAR: GCLP 251930Z 02017KT 9999 FEW025 22/17 Q1019 NOSIG

czas: 20:52 (19:52 UTC)

Prognoza

Raport powstał 5 godziny i 52 minut temu, godzina 14:00 UTC
Prognoza ważna od 25 godzina 15 UTC do 26 godzina 15 UTC
Wiatr 15 kt od północno-północny wschód
Widzialność 10 km lub więcej
Mało chmury na wysokości 2500 ft

TAF: GCLP 251400Z 2515/2615 02015KT 9999 FEW025 TX25/2614Z TN19/2605Z

Obserwacja i prognoza pogody dla ponad 4000 lotnisk (raport METAR i TAF).

Dostępne stacje oznaczono żółtymi i czerwonymi punktami na mapie.

Najedź kursorem aby zobaczyć nazwę stacji.

Kliknij aby zobaczyć obserwacje i prognozy pogody.

Aby zmienić mapę: kliknij na zielony przycisk z czarnym krzyżykiem, aby powiększyć; na zielony przycisk z myślnikiem, aby pomniejszyć; na zielone strzałki, aby przejść do map sąsiednich.


METAR-TAF: